sensor_id;sensor_type;location;lat;lon;timestamp;pressure;altitude;pressure_sealevel;temperature
8227;BMP180;4154;48.810;9.012;2023-02-01T00:00:03;97676.00;;;3.90
8227;BMP180;4154;48.810;9.012;2023-02-01T00:02:29;97674.00;;;3.90
8227;BMP180;4154;48.810;9.012;2023-02-01T00:04:55;97669.00;;;3.90
8227;BMP180;4154;48.810;9.012;2023-02-01T00:07:20;97660.00;;;3.80
8227;BMP180;4154;48.810;9.012;2023-02-01T00:09:46;97662.00;;;3.90
8227;BMP180;4154;48.810;9.012;2023-02-01T00:12:12;97656.00;;;3.90
8227;BMP180;4154;48.810;9.012;2023-02-01T00:14:38;97658.00;;;3.80
8227;BMP180;4154;48.810;9.012;2023-02-01T00:17:08;97650.00;;;3.90
8227;BMP180;4154;48.810;9.012;2023-02-01T00:19:34;97655.00;;;3.90
8227;BMP180;4154;48.810;9.012;2023-02-01T00:22:01;97661.00;;;3.80
8227;BMP180;4154;48.810;9.012;2023-02-01T00:24:27;97644.00;;;3.80
8227;BMP180;4154;48.810;9.012;2023-02-01T00:26:52;97652.00;;;3.80
8227;BMP180;4154;48.810;9.012;2023-02-01T00:29:19;97654.00;;;3.80
8227;BMP180;4154;48.810;9.012;2023-02-01T00:31:46;97654.00;;;3.80
8227;BMP180;4154;48.810;9.012;2023-02-01T00:34:15;97641.00;;;3.80
8227;BMP180;4154;48.810;9.012;2023-02-01T00:36:42;97648.00;;;3.80
8227;BMP180;4154;48.810;9.012;2023-02-01T00:39:09;97641.00;;;3.80
8227;BMP180;4154;48.810;9.012;2023-02-01T00:41:35;97643.00;;;3.90
8227;BMP180;4154;48.810;9.012;2023-02-01T00:44:01;97645.00;;;3.90
8227;BMP180;4154;48.810;9.012;2023-02-01T00:46:27;97655.00;;;3.80
8227;BMP180;4154;48.810;9.012;2023-02-01T00:48:54;97656.00;;;3.80
8227;BMP180;4154;48.810;9.012;2023-02-01T00:51:25;97656.00;;;3.80
8227;BMP180;4154;48.810;9.012;2023-02-01T00:53:52;97654.00;;;3.90
8227;BMP180;4154;48.810;9.012;2023-02-01T00:56:18;97647.00;;;3.80
8227;BMP180;4154;48.810;9.012;2023-02-01T00:58:44;97642.00;;;3.80
8227;BMP180;4154;48.810;9.012;2023-02-01T01:01:17;97650.00;;;3.80
8227;BMP180;4154;48.810;9.012;2023-02-01T01:03:48;97636.00;;;3.90
8227;BMP180;4154;48.810;9.012;2023-02-01T01:06:21;97628.00;;;3.90
8227;BMP180;4154;48.810;9.012;2023-02-01T01:08:47;97635.00;;;3.90
8227;BMP180;4154;48.810;9.012;2023-02-01T01:11:21;97634.00;;;4.00
8227;BMP180;4154;48.810;9.012;2023-02-01T01:13:48;97627.00;;;4.00
8227;BMP180;4154;48.810;9.012;2023-02-01T01:16:15;97631.00;;;4.00
8227;BMP180;4154;48.810;9.012;2023-02-01T01:18:42;97625.00;;;3.90
8227;BMP180;4154;48.810;9.012;2023-02-01T01:21:10;97617.00;;;4.00
8227;BMP180;4154;48.810;9.012;2023-02-01T01:23:36;97611.00;;;4.00
8227;BMP180;4154;48.810;9.012;2023-02-01T01:26:13;97615.00;;;4.00
8227;BMP180;4154;48.810;9.012;2023-02-01T01:28:39;97613.00;;;4.00
8227;BMP180;4154;48.810;9.012;2023-02-01T01:31:13;97616.00;;;3.90
8227;BMP180;4154;48.810;9.012;2023-02-01T01:33:39;97616.00;;;3.90
8227;BMP180;4154;48.810;9.012;2023-02-01T01:36:07;97606.00;;;4.00
8227;BMP180;4154;48.810;9.012;2023-02-01T01:38:37;97609.00;;;3.90
8227;BMP180;4154;48.810;9.012;2023-02-01T01:41:03;97607.00;;;3.90
8227;BMP180;4154;48.810;9.012;2023-02-01T01:43:52;97599.00;;;3.90
8227;BMP180;4154;48.810;9.012;2023-02-01T01:46:22;97607.00;;;4.00
8227;BMP180;4154;48.810;9.012;2023-02-01T01:48:56;97601.00;;;3.90
8227;BMP180;4154;48.810;9.012;2023-02-01T01:51:27;97603.00;;;3.90
8227;BMP180;4154;48.810;9.012;2023-02-01T01:54:03;97602.00;;;4.00
8227;BMP180;4154;48.810;9.012;2023-02-01T01:56:32;97582.00;;;4.00
8227;BMP180;4154;48.810;9.012;2023-02-01T01:58:59;97589.00;;;4.00
8227;BMP180;4154;48.810;9.012;2023-02-01T02:01:25;97597.00;;;4.10
8227;BMP180;4154;48.810;9.012;2023-02-01T02:03:52;97594.00;;;4.10
8227;BMP180;4154;48.810;9.012;2023-02-01T02:09:00;97599.00;;;3.90
8227;BMP180;4154;48.810;9.012;2023-02-01T02:11:26;97597.00;;;4.00
8227;BMP180;4154;48.810;9.012;2023-02-01T02:13:57;97590.00;;;3.90
8227;BMP180;4154;48.810;9.012;2023-02-01T02:20:06;97594.00;;;4.10
8227;BMP180;4154;48.810;9.012;2023-02-01T02:26:39;97584.00;;;4.10
8227;BMP180;4154;48.810;9.012;2023-02-01T02:29:32;97583.00;;;4.10
8227;BMP180;4154;48.810;9.012;2023-02-01T02:38:32;97571.00;;;4.10
8227;BMP180;4154;48.810;9.012;2023-02-01T02:44:12;97573.00;;;4.10
8227;BMP180;4154;48.810;9.012;2023-02-01T02:47:04;97569.00;;;4.20
8227;BMP180;4154;48.810;9.012;2023-02-01T02:50:09;97572.00;;;4.10
8227;BMP180;4154;48.810;9.012;2023-02-01T02:53:12;97578.00;;;4.10
8227;BMP180;4154;48.810;9.012;2023-02-01T02:55:59;97570.00;;;4.10
8227;BMP180;4154;48.810;9.012;2023-02-01T02:58:46;97564.00;;;4.00
8227;BMP180;4154;48.810;9.012;2023-02-01T03:01:31;97560.00;;;4.10
8227;BMP180;4154;48.810;9.012;2023-02-01T03:04:16;97573.00;;;4.10
8227;BMP180;4154;48.810;9.012;2023-02-01T03:06:44;97572.00;;;4.10
8227;BMP180;4154;48.810;9.012;2023-02-01T03:09:23;97566.00;;;4.10
8227;BMP180;4154;48.810;9.012;2023-02-01T03:11:54;97577.00;;;4.00
8227;BMP180;4154;48.810;9.012;2023-02-01T03:14:43;97571.00;;;4.10
8227;BMP180;4154;48.810;9.012;2023-02-01T03:17:18;97555.00;;;4.00
8227;BMP180;4154;48.810;9.012;2023-02-01T03:19:48;97547.00;;;4.10
8227;BMP180;4154;48.810;9.012;2023-02-01T03:22:27;97540.00;;;4.10
8227;BMP180;4154;48.810;9.012;2023-02-01T03:25:14;97539.00;;;4.10
8227;BMP180;4154;48.810;9.012;2023-02-01T03:27:56;97531.00;;;4.20
8227;BMP180;4154;48.810;9.012;2023-02-01T03:30:32;97520.00;;;4.30
8227;BMP180;4154;48.810;9.012;2023-02-01T03:33:03;97518.00;;;4.20
8227;BMP180;4154;48.810;9.012;2023-02-01T03:38:50;97511.00;;;4.10
8227;BMP180;4154;48.810;9.012;2023-02-01T03:41:56;97518.00;;;4.10
8227;BMP180;4154;48.810;9.012;2023-02-01T03:44:38;97515.00;;;4.00
8227;BMP180;4154;48.810;9.012;2023-02-01T03:47:11;97525.00;;;3.90
8227;BMP180;4154;48.810;9.012;2023-02-01T03:50:07;97527.00;;;3.90
8227;BMP180;4154;48.810;9.012;2023-02-01T03:52:39;97504.00;;;4.00
8227;BMP180;4154;48.810;9.012;2023-02-01T03:55:08;97522.00;;;4.10
8227;BMP180;4154;48.810;9.012;2023-02-01T03:57:41;97523.00;;;4.00
8227;BMP180;4154;48.810;9.012;2023-02-01T04:00:22;97510.00;;;4.00
8227;BMP180;4154;48.810;9.012;2023-02-01T04:02:49;97513.00;;;4.00
8227;BMP180;4154;48.810;9.012;2023-02-01T04:05:14;97516.00;;;4.00
8227;BMP180;4154;48.810;9.012;2023-02-01T04:07:40;97531.00;;;4.00
8227;BMP180;4154;48.810;9.012;2023-02-01T04:10:07;97532.00;;;4.00
8227;BMP180;4154;48.810;9.012;2023-02-01T04:12:33;97529.00;;;4.00
8227;BMP180;4154;48.810;9.012;2023-02-01T04:14:58;97527.00;;;4.10
8227;BMP180;4154;48.810;9.012;2023-02-01T04:17:24;97535.00;;;4.10
8227;BMP180;4154;48.810;9.012;2023-02-01T04:19:50;97527.00;;;4.10
8227;BMP180;4154;48.810;9.012;2023-02-01T04:22:15;97541.00;;;4.10
8227;BMP180;4154;48.810;9.012;2023-02-01T04:24:41;97534.00;;;4.10
8227;BMP180;4154;48.810;9.012;2023-02-01T04:27:07;97512.00;;;4.10
8227;BMP180;4154;48.810;9.012;2023-02-01T04:29:33;97512.00;;;4.20
8227;BMP180;4154;48.810;9.012;2023-02-01T04:31:58;97520.00;;;4.20
8227;BMP180;4154;48.810;9.012;2023-02-01T04:34:24;97530.00;;;4.10
8227;BMP180;4154;48.810;9.012;2023-02-01T04:36:51;97552.00;;;4.10
8227;BMP180;4154;48.810;9.012;2023-02-01T04:39:16;97541.00;;;4.00
8227;BMP180;4154;48.810;9.012;2023-02-01T04:41:42;97535.00;;;4.00
8227;BMP180;4154;48.810;9.012;2023-02-01T04:44:17;97534.00;;;4.10
8227;BMP180;4154;48.810;9.012;2023-02-01T04:46:45;97547.00;;;4.10
8227;BMP180;4154;48.810;9.012;2023-02-01T04:49:12;97535.00;;;4.00
8227;BMP180;4154;48.810;9.012;2023-02-01T04:51:38;97532.00;;;4.00
8227;BMP180;4154;48.810;9.012;2023-02-01T04:54:04;97499.00;;;3.90
8227;BMP180;4154;48.810;9.012;2023-02-01T04:56:30;97514.00;;;3.90
8227;BMP180;4154;48.810;9.012;2023-02-01T04:58:56;97505.00;;;4.00
8227;BMP180;4154;48.810;9.012;2023-02-01T05:01:23;97500.00;;;4.00
8227;BMP180;4154;48.810;9.012;2023-02-01T05:03:50;97512.00;;;4.00
8227;BMP180;4154;48.810;9.012;2023-02-01T05:06:17;97523.00;;;4.10
8227;BMP180;4154;48.810;9.012;2023-02-01T05:08:42;97521.00;;;4.10
8227;BMP180;4154;48.810;9.012;2023-02-01T05:11:08;97530.00;;;4.10
8227;BMP180;4154;48.810;9.012;2023-02-01T05:13:53;97531.00;;;4.10
8227;BMP180;4154;48.810;9.012;2023-02-01T05:16:19;97525.00;;;4.10
8227;BMP180;4154;48.810;9.012;2023-02-01T05:18:45;97525.00;;;4.20
8227;BMP180;4154;48.810;9.012;2023-02-01T05:21:11;97518.00;;;4.20
8227;BMP180;4154;48.810;9.012;2023-02-01T05:23:36;97517.00;;;4.30
8227;BMP180;4154;48.810;9.012;2023-02-01T05:26:22;97520.00;;;4.30
8227;BMP180;4154;48.810;9.012;2023-02-01T05:28:48;97510.00;;;4.40
8227;BMP180;4154;48.810;9.012;2023-02-01T05:31:13;97523.00;;;4.40
8227;BMP180;4154;48.810;9.012;2023-02-01T05:33:39;97519.00;;;4.50
8227;BMP180;4154;48.810;9.012;2023-02-01T05:36:06;97528.00;;;4.50
8227;BMP180;4154;48.810;9.012;2023-02-01T05:38:32;97537.00;;;4.40
8227;BMP180;4154;48.810;9.012;2023-02-01T05:40:58;97542.00;;;4.50
8227;BMP180;4154;48.810;9.012;2023-02-01T05:43:24;97545.00;;;4.50
8227;BMP180;4154;48.810;9.012;2023-02-01T05:45:52;97547.00;;;4.40
8227;BMP180;4154;48.810;9.012;2023-02-01T05:48:18;97542.00;;;4.30
8227;BMP180;4154;48.810;9.012;2023-02-01T05:50:44;97547.00;;;4.40
8227;BMP180;4154;48.810;9.012;2023-02-01T05:53:11;97548.00;;;4.40
8227;BMP180;4154;48.810;9.012;2023-02-01T05:55:37;97539.00;;;4.40
8227;BMP180;4154;48.810;9.012;2023-02-01T05:58:04;97531.00;;;4.30
8227;BMP180;4154;48.810;9.012;2023-02-01T06:00:30;97527.00;;;4.30
8227;BMP180;4154;48.810;9.012;2023-02-01T06:02:55;97521.00;;;4.30
8227;BMP180;4154;48.810;9.012;2023-02-01T06:05:21;97520.00;;;4.30
8227;BMP180;4154;48.810;9.012;2023-02-01T06:07:47;97510.00;;;4.40
8227;BMP180;4154;48.810;9.012;2023-02-01T06:10:16;97517.00;;;4.40
8227;BMP180;4154;48.810;9.012;2023-02-01T06:12:43;97521.00;;;4.30
8227;BMP180;4154;48.810;9.012;2023-02-01T06:15:11;97498.00;;;4.30
8227;BMP180;4154;48.810;9.012;2023-02-01T06:17:37;97511.00;;;4.40
8227;BMP180;4154;48.810;9.012;2023-02-01T06:20:04;97493.00;;;4.40
8227;BMP180;4154;48.810;9.012;2023-02-01T06:22:32;97516.00;;;4.40
8227;BMP180;4154;48.810;9.012;2023-02-01T06:24:58;97520.00;;;4.40
8227;BMP180;4154;48.810;9.012;2023-02-01T06:27:25;97527.00;;;4.30
8227;BMP180;4154;48.810;9.012;2023-02-01T06:29:51;97533.00;;;4.40
8227;BMP180;4154;48.810;9.012;2023-02-01T06:32:16;97529.00;;;4.30
8227;BMP180;4154;48.810;9.012;2023-02-01T06:34:43;97533.00;;;4.30
8227;BMP180;4154;48.810;9.012;2023-02-01T06:37:09;97531.00;;;4.30
8227;BMP180;4154;48.810;9.012;2023-02-01T06:39:36;97530.00;;;4.40
8227;BMP180;4154;48.810;9.012;2023-02-01T06:42:03;97534.00;;;4.40
8227;BMP180;4154;48.810;9.012;2023-02-01T06:44:29;97519.00;;;4.30
8227;BMP180;4154;48.810;9.012;2023-02-01T06:46:55;97501.00;;;4.30
8227;BMP180;4154;48.810;9.012;2023-02-01T06:49:21;97511.00;;;4.40
8227;BMP180;4154;48.810;9.012;2023-02-01T06:51:47;97502.00;;;4.40
8227;BMP180;4154;48.810;9.012;2023-02-01T06:54:13;97513.00;;;4.30
8227;BMP180;4154;48.810;9.012;2023-02-01T06:56:39;97514.00;;;4.20
8227;BMP180;4154;48.810;9.012;2023-02-01T06:59:06;97527.00;;;4.20
8227;BMP180;4154;48.810;9.012;2023-02-01T07:01:33;97525.00;;;4.20
8227;BMP180;4154;48.810;9.012;2023-02-01T07:03:59;97525.00;;;4.20
8227;BMP180;4154;48.810;9.012;2023-02-01T07:06:25;97528.00;;;4.30
8227;BMP180;4154;48.810;9.012;2023-02-01T07:08:51;97533.00;;;4.40
8227;BMP180;4154;48.810;9.012;2023-02-01T07:11:18;97554.00;;;4.50
8227;BMP180;4154;48.810;9.012;2023-02-01T07:13:44;97563.00;;;4.40
8227;BMP180;4154;48.810;9.012;2023-02-01T07:16:19;97558.00;;;4.50
8227;BMP180;4154;48.810;9.012;2023-02-01T07:18:45;97572.00;;;4.50
8227;BMP180;4154;48.810;9.012;2023-02-01T07:21:12;97552.00;;;4.40
8227;BMP180;4154;48.810;9.012;2023-02-01T07:23:38;97572.00;;;4.40
8227;BMP180;4154;48.810;9.012;2023-02-01T07:26:06;97573.00;;;4.40
8227;BMP180;4154;48.810;9.012;2023-02-01T07:28:35;97574.00;;;4.50
8227;BMP180;4154;48.810;9.012;2023-02-01T07:31:13;97581.00;;;4.60
8227;BMP180;4154;48.810;9.012;2023-02-01T07:33:41;97573.00;;;4.60
8227;BMP180;4154;48.810;9.012;2023-02-01T07:36:12;97573.00;;;4.70
8227;BMP180;4154;48.810;9.012;2023-02-01T07:38:38;97582.00;;;4.70
8227;BMP180;4154;48.810;9.012;2023-02-01T07:41:05;97572.00;;;4.60
8227;BMP180;4154;48.810;9.012;2023-02-01T07:43:32;97581.00;;;4.60
8227;BMP180;4154;48.810;9.012;2023-02-01T07:46:02;97574.00;;;4.70
8227;BMP180;4154;48.810;9.012;2023-02-01T07:48:30;97566.00;;;4.70
8227;BMP180;4154;48.810;9.012;2023-02-01T07:51:07;97579.00;;;4.70
8227;BMP180;4154;48.810;9.012;2023-02-01T07:53:34;97565.00;;;4.70
8227;BMP180;4154;48.810;9.012;2023-02-01T07:56:01;97576.00;;;4.70
8227;BMP180;4154;48.810;9.012;2023-02-01T07:58:28;97569.00;;;4.70
8227;BMP180;4154;48.810;9.012;2023-02-01T08:00:54;97585.00;;;4.70
8227;BMP180;4154;48.810;9.012;2023-02-01T08:03:39;97580.00;;;4.60
8227;BMP180;4154;48.810;9.012;2023-02-01T08:06:05;97558.00;;;4.80
8227;BMP180;4154;48.810;9.012;2023-02-01T08:08:32;97574.00;;;4.70
8227;BMP180;4154;48.810;9.012;2023-02-01T08:11:04;97570.00;;;4.80
8227;BMP180;4154;48.810;9.012;2023-02-01T08:13:30;97568.00;;;4.70
8227;BMP180;4154;48.810;9.012;2023-02-01T08:16:05;97572.00;;;4.70
8227;BMP180;4154;48.810;9.012;2023-02-01T08:18:31;97566.00;;;4.70
8227;BMP180;4154;48.810;9.012;2023-02-01T08:21:02;97564.00;;;4.70
8227;BMP180;4154;48.810;9.012;2023-02-01T08:23:29;97550.00;;;4.80
8227;BMP180;4154;48.810;9.012;2023-02-01T08:26:08;97553.00;;;4.90
8227;BMP180;4154;48.810;9.012;2023-02-01T08:28:34;97548.00;;;5.00
8227;BMP180;4154;48.810;9.012;2023-02-01T08:31:10;97562.00;;;5.00
8227;BMP180;4154;48.810;9.012;2023-02-01T08:33:36;97566.00;;;5.00
8227;BMP180;4154;48.810;9.012;2023-02-01T08:36:07;97575.00;;;4.90
8227;BMP180;4154;48.810;9.012;2023-02-01T08:38:39;97560.00;;;4.90
8227;BMP180;4154;48.810;9.012;2023-02-01T08:41:16;97565.00;;;5.00
8227;BMP180;4154;48.810;9.012;2023-02-01T08:43:42;97560.00;;;5.00
8227;BMP180;4154;48.810;9.012;2023-02-01T08:46:10;97566.00;;;5.00
8227;BMP180;4154;48.810;9.012;2023-02-01T08:48:36;97580.00;;;5.10
8227;BMP180;4154;48.810;9.012;2023-02-01T08:51:05;97576.00;;;5.10
8227;BMP180;4154;48.810;9.012;2023-02-01T08:53:31;97590.00;;;5.20
8227;BMP180;4154;48.810;9.012;2023-02-01T08:55:57;97596.00;;;5.10
8227;BMP180;4154;48.810;9.012;2023-02-01T08:58:23;97590.00;;;5.20
8227;BMP180;4154;48.810;9.012;2023-02-01T09:00:49;97594.00;;;5.20
8227;BMP180;4154;48.810;9.012;2023-02-01T09:03:16;97610.00;;;5.20
8227;BMP180;4154;48.810;9.012;2023-02-01T09:05:41;97618.00;;;5.10
8227;BMP180;4154;48.810;9.012;2023-02-01T09:08:07;97621.00;;;5.00
8227;BMP180;4154;48.810;9.012;2023-02-01T09:10:34;97618.00;;;5.00
8227;BMP180;4154;48.810;9.012;2023-02-01T09:13:01;97609.00;;;4.90
8227;BMP180;4154;48.810;9.012;2023-02-01T09:15:27;97606.00;;;5.00
8227;BMP180;4154;48.810;9.012;2023-02-01T09:17:53;97622.00;;;4.90
8227;BMP180;4154;48.810;9.012;2023-02-01T09:20:19;97597.00;;;4.80
8227;BMP180;4154;48.810;9.012;2023-02-01T09:22:51;97592.00;;;4.70
8227;BMP180;4154;48.810;9.012;2023-02-01T09:25:17;97594.00;;;4.80
8227;BMP180;4154;48.810;9.012;2023-02-01T09:27:43;97593.00;;;4.80
8227;BMP180;4154;48.810;9.012;2023-02-01T09:30:09;97616.00;;;4.90
8227;BMP180;4154;48.810;9.012;2023-02-01T09:32:35;97618.00;;;4.90
8227;BMP180;4154;48.810;9.012;2023-02-01T09:35:01;97623.00;;;5.00
8227;BMP180;4154;48.810;9.012;2023-02-01T09:37:27;97604.00;;;5.00
8227;BMP180;4154;48.810;9.012;2023-02-01T09:39:53;97626.00;;;5.10
8227;BMP180;4154;48.810;9.012;2023-02-01T09:48:15;97611.00;;;5.10
8227;BMP180;4154;48.810;9.012;2023-02-01T09:50:50;97621.00;;;5.10
8227;BMP180;4154;48.810;9.012;2023-02-01T09:53:32;97620.00;;;5.20
8227;BMP180;4154;48.810;9.012;2023-02-01T09:56:21;97622.00;;;5.10
8227;BMP180;4154;48.810;9.012;2023-02-01T09:59:08;97631.00;;;5.30
8227;BMP180;4154;48.810;9.012;2023-02-01T10:01:36;97621.00;;;5.30
8227;BMP180;4154;48.810;9.012;2023-02-01T10:04:12;97633.00;;;5.30
8227;BMP180;4154;48.810;9.012;2023-02-01T10:07:22;97627.00;;;5.30
8227;BMP180;4154;48.810;9.012;2023-02-01T10:10:21;97633.00;;;5.30
8227;BMP180;4154;48.810;9.012;2023-02-01T10:13:13;97637.00;;;5.30
8227;BMP180;4154;48.810;9.012;2023-02-01T10:18:33;97655.00;;;5.20
8227;BMP180;4154;48.810;9.012;2023-02-01T10:26:33;97658.00;;;5.40
8227;BMP180;4154;48.810;9.012;2023-02-01T10:29:15;97668.00;;;5.50
8227;BMP180;4154;48.810;9.012;2023-02-01T10:31:42;97656.00;;;5.30
8227;BMP180;4154;48.810;9.012;2023-02-01T10:34:21;97662.00;;;5.50
8227;BMP180;4154;48.810;9.012;2023-02-01T10:36:58;97651.00;;;5.50
8227;BMP180;4154;48.810;9.012;2023-02-01T10:39:25;97663.00;;;5.60
8227;BMP180;4154;48.810;9.012;2023-02-01T10:41:51;97657.00;;;5.60
8227;BMP180;4154;48.810;9.012;2023-02-01T10:44:25;97638.00;;;5.60
8227;BMP180;4154;48.810;9.012;2023-02-01T10:46:52;97654.00;;;5.50
8227;BMP180;4154;48.810;9.012;2023-02-01T10:49:55;97648.00;;;5.70
8227;BMP180;4154;48.810;9.012;2023-02-01T10:52:43;97657.00;;;5.60
8227;BMP180;4154;48.810;9.012;2023-02-01T10:58:16;97640.00;;;5.40
8227;BMP180;4154;48.810;9.012;2023-02-01T11:00:56;97632.00;;;5.40
8227;BMP180;4154;48.810;9.012;2023-02-01T11:03:42;97637.00;;;5.50
8227;BMP180;4154;48.810;9.012;2023-02-01T11:11:53;97641.00;;;5.50
8227;BMP180;4154;48.810;9.012;2023-02-01T11:14:38;97635.00;;;5.40
8227;BMP180;4154;48.810;9.012;2023-02-01T11:17:27;97626.00;;;5.50
8227;BMP180;4154;48.810;9.012;2023-02-01T11:20:02;97614.00;;;5.40
8227;BMP180;4154;48.810;9.012;2023-02-01T11:22:29;97620.00;;;5.50
8227;BMP180;4154;48.810;9.012;2023-02-01T11:24:56;97631.00;;;5.50
8227;BMP180;4154;48.810;9.012;2023-02-01T11:27:24;97613.00;;;5.50
8227;BMP180;4154;48.810;9.012;2023-02-01T11:29:55;97621.00;;;5.60
8227;BMP180;4154;48.810;9.012;2023-02-01T11:32:24;97606.00;;;5.60
8227;BMP180;4154;48.810;9.012;2023-02-01T11:35:00;97605.00;;;5.50
8227;BMP180;4154;48.810;9.012;2023-02-01T11:37:40;97607.00;;;5.60
8227;BMP180;4154;48.810;9.012;2023-02-01T11:42:58;97598.00;;;5.60
8227;BMP180;4154;48.810;9.012;2023-02-01T11:45:32;97584.00;;;5.60
8227;BMP180;4154;48.810;9.012;2023-02-01T11:48:00;97574.00;;;5.60
8227;BMP180;4154;48.810;9.012;2023-02-01T11:50:36;97578.00;;;5.60
8227;BMP180;4154;48.810;9.012;2023-02-01T11:53:41;97553.00;;;5.70
8227;BMP180;4154;48.810;9.012;2023-02-01T11:56:47;97578.00;;;5.70
8227;BMP180;4154;48.810;9.012;2023-02-01T12:09:04;97557.00;;;5.50
8227;BMP180;4154;48.810;9.012;2023-02-01T12:11:43;97562.00;;;5.60
8227;BMP180;4154;48.810;9.012;2023-02-01T12:20:02;97553.00;;;5.50
8227;BMP180;4154;48.810;9.012;2023-02-01T12:25:51;97571.00;;;5.40
8227;BMP180;4154;48.810;9.012;2023-02-01T12:28:38;97585.00;;;5.30
8227;BMP180;4154;48.810;9.012;2023-02-01T12:34:36;97566.00;;;5.20
8227;BMP180;4154;48.810;9.012;2023-02-01T12:43:52;97569.00;;;5.30
8227;BMP180;4154;48.810;9.012;2023-02-01T12:46:37;97562.00;;;5.30
8227;BMP180;4154;48.810;9.012;2023-02-01T12:51:45;97567.00;;;5.10
8227;BMP180;4154;48.810;9.012;2023-02-01T12:54:22;97581.00;;;5.00
8227;BMP180;4154;48.810;9.012;2023-02-01T12:56:57;97577.00;;;5.00
8227;BMP180;4154;48.810;9.012;2023-02-01T12:59:37;97582.00;;;5.00
8227;BMP180;4154;48.810;9.012;2023-02-01T13:02:31;97572.00;;;5.00
8227;BMP180;4154;48.810;9.012;2023-02-01T13:05:19;97595.00;;;5.00
8227;BMP180;4154;48.810;9.012;2023-02-01T13:07:58;97581.00;;;5.10
8227;BMP180;4154;48.810;9.012;2023-02-01T13:10:33;97584.00;;;5.10
8227;BMP180;4154;48.810;9.012;2023-02-01T13:16:31;97580.00;;;5.00
8227;BMP180;4154;48.810;9.012;2023-02-01T13:21:56;97551.00;;;5.00
8227;BMP180;4154;48.810;9.012;2023-02-01T13:24:43;97547.00;;;5.00
8227;BMP180;4154;48.810;9.012;2023-02-01T13:27:15;97549.00;;;5.00
8227;BMP180;4154;48.810;9.012;2023-02-01T13:29:55;97545.00;;;5.00
8227;BMP180;4154;48.810;9.012;2023-02-01T13:36:16;97553.00;;;5.00
8227;BMP180;4154;48.810;9.012;2023-02-01T13:42:23;97563.00;;;5.00
8227;BMP180;4154;48.810;9.012;2023-02-01T13:45:00;97551.00;;;5.00
8227;BMP180;4154;48.810;9.012;2023-02-01T13:47:34;97557.00;;;4.90
8227;BMP180;4154;48.810;9.012;2023-02-01T13:50:29;97558.00;;;4.90
8227;BMP180;4154;48.810;9.012;2023-02-01T13:55:41;97539.00;;;4.90
8227;BMP180;4154;48.810;9.012;2023-02-01T13:58:29;97537.00;;;4.80
8227;BMP180;4154;48.810;9.012;2023-02-01T14:19:33;97525.00;;;5.20
8227;BMP180;4154;48.810;9.012;2023-02-01T14:24:56;97528.00;;;5.30
8227;BMP180;4154;48.810;9.012;2023-02-01T14:27:26;97532.00;;;5.30
8227;BMP180;4154;48.810;9.012;2023-02-01T14:29:59;97540.00;;;5.10
8227;BMP180;4154;48.810;9.012;2023-02-01T14:32:37;97535.00;;;5.20
8227;BMP180;4154;48.810;9.012;2023-02-01T14:35:20;97543.00;;;5.10
8227;BMP180;4154;48.810;9.012;2023-02-01T14:37:52;97540.00;;;5.00
8227;BMP180;4154;48.810;9.012;2023-02-01T14:40:24;97569.00;;;5.00
8227;BMP180;4154;48.810;9.012;2023-02-01T14:42:52;97571.00;;;4.90
8227;BMP180;4154;48.810;9.012;2023-02-01T14:50:46;97577.00;;;4.90
8227;BMP180;4154;48.810;9.012;2023-02-01T14:56:04;97561.00;;;5.00
8227;BMP180;4154;48.810;9.012;2023-02-01T14:59:06;97561.00;;;5.00
8227;BMP180;4154;48.810;9.012;2023-02-01T15:01:38;97565.00;;;5.10
8227;BMP180;4154;48.810;9.012;2023-02-01T15:04:16;97582.00;;;5.00
8227;BMP180;4154;48.810;9.012;2023-02-01T15:06:51;97574.00;;;5.20
8227;BMP180;4154;48.810;9.012;2023-02-01T15:09:43;97565.00;;;5.10
8227;BMP180;4154;48.810;9.012;2023-02-01T15:14:46;97558.00;;;5.20
8227;BMP180;4154;48.810;9.012;2023-02-01T15:17:23;97568.00;;;5.20
8227;BMP180;4154;48.810;9.012;2023-02-01T15:20:18;97575.00;;;5.20
8227;BMP180;4154;48.810;9.012;2023-02-01T15:23:14;97576.00;;;5.30
8227;BMP180;4154;48.810;9.012;2023-02-01T15:25:44;97566.00;;;5.30
8227;BMP180;4154;48.810;9.012;2023-02-01T15:28:14;97553.00;;;5.30
8227;BMP180;4154;48.810;9.012;2023-02-01T15:30:54;97563.00;;;5.30
8227;BMP180;4154;48.810;9.012;2023-02-01T15:33:21;97570.00;;;5.30
8227;BMP180;4154;48.810;9.012;2023-02-01T15:35:50;97566.00;;;5.30
8227;BMP180;4154;48.810;9.012;2023-02-01T15:41:17;97562.00;;;5.40
8227;BMP180;4154;48.810;9.012;2023-02-01T15:44:02;97575.00;;;5.40
8227;BMP180;4154;48.810;9.012;2023-02-01T15:46:45;97579.00;;;5.40
8227;BMP180;4154;48.810;9.012;2023-02-01T15:49:37;97583.00;;;5.20
8227;BMP180;4154;48.810;9.012;2023-02-01T15:52:25;97585.00;;;5.20
8227;BMP180;4154;48.810;9.012;2023-02-01T15:54:58;97591.00;;;5.10
8227;BMP180;4154;48.810;9.012;2023-02-01T15:57:35;97584.00;;;5.20
8227;BMP180;4154;48.810;9.012;2023-02-01T16:00:07;97580.00;;;5.20
8227;BMP180;4154;48.810;9.012;2023-02-01T16:02:43;97592.00;;;5.30
8227;BMP180;4154;48.810;9.012;2023-02-01T16:05:37;97596.00;;;5.30
8227;BMP180;4154;48.810;9.012;2023-02-01T16:08:19;97582.00;;;5.30
8227;BMP180;4154;48.810;9.012;2023-02-01T16:10:49;97597.00;;;5.30
8227;BMP180;4154;48.810;9.012;2023-02-01T16:13:18;97592.00;;;5.30
8227;BMP180;4154;48.810;9.012;2023-02-01T16:15:44;97605.00;;;5.20
8227;BMP180;4154;48.810;9.012;2023-02-01T16:18:12;97597.00;;;5.30
8227;BMP180;4154;48.810;9.012;2023-02-01T16:20:41;97587.00;;;5.40
8227;BMP180;4154;48.810;9.012;2023-02-01T16:23:10;97591.00;;;5.40
8227;BMP180;4154;48.810;9.012;2023-02-01T16:25:37;97607.00;;;5.30
8227;BMP180;4154;48.810;9.012;2023-02-01T16:28:03;97600.00;;;5.30
8227;BMP180;4154;48.810;9.012;2023-02-01T16:30:31;97599.00;;;5.20
8227;BMP180;4154;48.810;9.012;2023-02-01T16:33:00;97592.00;;;5.20
8227;BMP180;4154;48.810;9.012;2023-02-01T16:35:32;97610.00;;;5.30
8227;BMP180;4154;48.810;9.012;2023-02-01T16:38:08;97604.00;;;5.30
8227;BMP180;4154;48.810;9.012;2023-02-01T16:40:42;97601.00;;;5.30
8227;BMP180;4154;48.810;9.012;2023-02-01T16:43:23;97621.00;;;5.30
8227;BMP180;4154;48.810;9.012;2023-02-01T16:45:52;97601.00;;;5.30
8227;BMP180;4154;48.810;9.012;2023-02-01T16:48:31;97617.00;;;5.30
8227;BMP180;4154;48.810;9.012;2023-02-01T16:51:02;97601.00;;;5.50
8227;BMP180;4154;48.810;9.012;2023-02-01T16:53:31;97609.00;;;5.40
8227;BMP180;4154;48.810;9.012;2023-02-01T16:55:57;97616.00;;;5.40
8227;BMP180;4154;48.810;9.012;2023-02-01T16:58:25;97618.00;;;5.40
8227;BMP180;4154;48.810;9.012;2023-02-01T17:00:52;97623.00;;;5.40
8227;BMP180;4154;48.810;9.012;2023-02-01T17:03:20;97623.00;;;5.30
8227;BMP180;4154;48.810;9.012;2023-02-01T17:05:57;97618.00;;;5.30
8227;BMP180;4154;48.810;9.012;2023-02-01T17:08:41;97626.00;;;5.40
8227;BMP180;4154;48.810;9.012;2023-02-01T17:11:11;97620.00;;;5.40
8227;BMP180;4154;48.810;9.012;2023-02-01T17:13:39;97615.00;;;5.40
8227;BMP180;4154;48.810;9.012;2023-02-01T17:16:20;97610.00;;;5.30
8227;BMP180;4154;48.810;9.012;2023-02-01T17:19:03;97606.00;;;5.20
8227;BMP180;4154;48.810;9.012;2023-02-01T17:21:40;97605.00;;;5.30
8227;BMP180;4154;48.810;9.012;2023-02-01T17:24:12;97611.00;;;5.30
8227;BMP180;4154;48.810;9.012;2023-02-01T17:26:38;97617.00;;;5.40
8227;BMP180;4154;48.810;9.012;2023-02-01T17:29:04;97621.00;;;5.20